Airfield :







YOU CAN JOIN US ON...

 
LOGIN :

Register | Disclaimer

   EN    FR    IT 

 









Legend :    VFR   Marginal VFR   IFR   Intensive IFR   Very Intensive IFR
Visi :
Ceiling :
>= 8 km
>= 3000ft
5 to 8 km
1000 to 3000 ft
1500m to 5 km
500 to 1000 ft
800 to 1500m
200 to 500 ft
< 800m
< 200 ft
Symbols :   Thunderstorms  Fog  Heavy snow  Heavy precipitations  Wind > 20 kt






- Airport Elevation : 352 ft


KAUG - Augusta State

CURRENT METAR :
  • 021553Z AUTO VRB06KT 10SM FEW022 26/19 A2981 RMK AO2 SLP093 T02560194

EXPIRED METARs :
  • 021453Z AUTO 25004KT 10SM FEW021 BKN048 23/19 A2982 RMK AO2 SLP096 60012 T02330194 53001
  • 020253Z AUTO 00000KT 10SM CLR 22/17 A2984 RMK AO2 SLP104 T02220172 51005

TAF KAUG
Valid from the 02 at 12:00 until the 03 at 12:00 UTC


021120Z 0212/0312 23004KT P6SM -RA OVC050
FM021700 25012KT P6SM BKN100
FM022200 28009KT P6SM SCT250
KZBW FIR / North America



MET'MAP, your aeronautical weather chart ! - Copyright ORBIFLY December 2007 - Disclaimer

ORBIFLY MET'MAP TEAM :

Programming & Development : Alexandra Zaïnal
Original concept : Baudouin d'Aumeries
Technical & hardware support : Manuel Goepfert
Assistance : Marc-Olivier Méhu




SOURCES & CREDITS :

   NOAA